首页
METAR-TAF:

METAR-TAF

机场 :

北巴特爾福德, 薩斯喀徹溫, 加拿大

纬度: 52-46N, 经度: 108-15W, 海拔: 548米

当前天气观测

该预报发布于58分钟前的03:00 UTC
风速6节,风向西转西北
温度 -14°C
湿度 85%
气压 1012 hPa
能見度: 14.5公里
少量云层高于15000英尺

METAR: CYQW 170300Z AUTO 30006KT 9SM FEW150 M14/M16 A2987 RMK SLP165

时间: 21:58 (03:58 UTC)

预报

该预报发布于4小时和20分钟前的23:38 UTC
预报有效从17日的 00点(UTC)到 17日的 12点(UTC)
风速5节,风向西北
能見度: 10公里
散云层高于1500英尺
阴天层高于3000英尺
短暂存在
从 17日的 00点(UTC)到 17日的 12点(UTC)
能見度: 8.0公里
多云层高于1500英尺
阴天层高于3000英尺
小雪

TAF: CYQW 162338Z 1700/1712 32005KT P6SM SCT015 OVC030 TEMPO 1700/1712 5SM -SN BKN015 OVC030 RMK FCST BASED ON AUTO OBS. NXT FCST BY 170600Z

超过4000个机场的气象观测和天气预报(METAR&TAF报告)。

可查询的气象台以黄色和红色小点在地图上表示。

将鼠标移到小点上方,可查看气象台名称。

然后点击查看天气观测和预报。

如需切换地图:点击带黑十字的绿色按钮放大地图;点击带横线的绿色按钮缩小地图;或者点击绿色箭头查看邻近地区的地图。


METAR-TAF: